sensor_id;sensor_type;location;lat;lon;timestamp;P1;durP1;ratioP1;P2;durP2;ratioP2
18206;SDS011;9229;52.354;20.886;2022-10-16T00:02:00;28.25;;;15.15;;
18206;SDS011;9229;52.354;20.886;2022-10-16T00:07:02;27.00;;;14.80;;
18206;SDS011;9229;52.354;20.886;2022-10-16T00:12:05;24.05;;;14.30;;
18206;SDS011;9229;52.354;20.886;2022-10-16T00:17:07;21.50;;;13.65;;
18206;SDS011;9229;52.354;20.886;2022-10-16T00:22:09;24.10;;;12.93;;
18206;SDS011;9229;52.354;20.886;2022-10-16T00:27:12;20.63;;;12.75;;
18206;SDS011;9229;52.354;20.886;2022-10-16T00:32:14;19.00;;;12.40;;
18206;SDS011;9229;52.354;20.886;2022-10-16T00:37:16;22.58;;;13.05;;
18206;SDS011;9229;52.354;20.886;2022-10-16T00:42:19;20.42;;;12.55;;
18206;SDS011;9229;52.354;20.886;2022-10-16T00:47:23;20.50;;;12.35;;
18206;SDS011;9229;52.354;20.886;2022-10-16T00:52:27;13.68;;;11.15;;
18206;SDS011;9229;52.354;20.886;2022-10-16T00:57:30;17.52;;;11.73;;
18206;SDS011;9229;52.354;20.886;2022-10-16T01:02:32;22.20;;;12.00;;
18206;SDS011;9229;52.354;20.886;2022-10-16T01:07:36;17.88;;;11.55;;
18206;SDS011;9229;52.354;20.886;2022-10-16T01:12:50;16.15;;;11.35;;
18206;SDS011;9229;52.354;20.886;2022-10-16T01:17:57;17.50;;;10.90;;
18206;SDS011;9229;52.354;20.886;2022-10-16T01:23:05;15.27;;;10.43;;
18206;SDS011;9229;52.354;20.886;2022-10-16T01:28:12;13.95;;;10.40;;
18206;SDS011;9229;52.354;20.886;2022-10-16T01:33:17;23.05;;;12.35;;
18206;SDS011;9229;52.354;20.886;2022-10-16T01:38:23;18.67;;;10.95;;
18206;SDS011;9229;52.354;20.886;2022-10-16T01:43:33;17.48;;;11.00;;
18206;SDS011;9229;52.354;20.886;2022-10-16T01:48:39;16.02;;;10.43;;
18206;SDS011;9229;52.354;20.886;2022-10-16T01:53:43;18.05;;;11.55;;
18206;SDS011;9229;52.354;20.886;2022-10-16T01:58:51;17.85;;;11.52;;
18206;SDS011;9229;52.354;20.886;2022-10-16T02:03:57;16.17;;;10.90;;
18206;SDS011;9229;52.354;20.886;2022-10-16T02:09:03;18.40;;;11.35;;
18206;SDS011;9229;52.354;20.886;2022-10-16T02:14:07;16.48;;;10.80;;
18206;SDS011;9229;52.354;20.886;2022-10-16T02:19:10;15.57;;;11.38;;
18206;SDS011;9229;52.354;20.886;2022-10-16T02:24:15;23.77;;;12.30;;
18206;SDS011;9229;52.354;20.886;2022-10-16T02:29:24;16.67;;;10.75;;
18206;SDS011;9229;52.354;20.886;2022-10-16T02:34:27;19.58;;;11.18;;
18206;SDS011;9229;52.354;20.886;2022-10-16T02:39:31;24.10;;;13.57;;
18206;SDS011;9229;52.354;20.886;2022-10-16T02:44:35;29.13;;;14.20;;
18206;SDS011;9229;52.354;20.886;2022-10-16T02:49:36;27.13;;;14.73;;
18206;SDS011;9229;52.354;20.886;2022-10-16T02:54:38;24.10;;;13.35;;
18206;SDS011;9229;52.354;20.886;2022-10-16T02:59:41;30.77;;;15.80;;
18206;SDS011;9229;52.354;20.886;2022-10-16T03:04:43;29.45;;;14.98;;
18206;SDS011;9229;52.354;20.886;2022-10-16T03:09:45;25.05;;;14.40;;
18206;SDS011;9229;52.354;20.886;2022-10-16T03:14:48;24.48;;;13.25;;
18206;SDS011;9229;52.354;20.886;2022-10-16T03:19:50;23.73;;;14.00;;
18206;SDS011;9229;52.354;20.886;2022-10-16T03:24:52;26.00;;;13.57;;
18206;SDS011;9229;52.354;20.886;2022-10-16T03:29:55;23.65;;;13.95;;
18206;SDS011;9229;52.354;20.886;2022-10-16T03:34:57;23.52;;;14.15;;
18206;SDS011;9229;52.354;20.886;2022-10-16T03:39:58;24.23;;;13.77;;
18206;SDS011;9229;52.354;20.886;2022-10-16T03:45:02;26.98;;;13.68;;
18206;SDS011;9229;52.354;20.886;2022-10-16T03:50:04;23.63;;;14.30;;
18206;SDS011;9229;52.354;20.886;2022-10-16T03:55:07;25.02;;;14.30;;
18206;SDS011;9229;52.354;20.886;2022-10-16T04:00:12;19.58;;;13.25;;
18206;SDS011;9229;52.354;20.886;2022-10-16T04:05:14;23.00;;;14.85;;
18206;SDS011;9229;52.354;20.886;2022-10-16T04:10:17;24.75;;;14.65;;
18206;SDS011;9229;52.354;20.886;2022-10-16T04:15:20;25.77;;;15.13;;
18206;SDS011;9229;52.354;20.886;2022-10-16T04:20:22;24.17;;;14.07;;
18206;SDS011;9229;52.354;20.886;2022-10-16T04:25:24;25.92;;;15.38;;
18206;SDS011;9229;52.354;20.886;2022-10-16T04:30:27;25.02;;;14.98;;
18206;SDS011;9229;52.354;20.886;2022-10-16T04:35:29;27.33;;;15.57;;
18206;SDS011;9229;52.354;20.886;2022-10-16T04:40:31;23.73;;;14.50;;
18206;SDS011;9229;52.354;20.886;2022-10-16T04:45:37;27.95;;;14.88;;
18206;SDS011;9229;52.354;20.886;2022-10-16T04:50:39;28.38;;;15.65;;
18206;SDS011;9229;52.354;20.886;2022-10-16T04:55:42;29.30;;;15.60;;
18206;SDS011;9229;52.354;20.886;2022-10-16T05:00:45;35.33;;;16.02;;
18206;SDS011;9229;52.354;20.886;2022-10-16T05:05:47;28.33;;;15.57;;
18206;SDS011;9229;52.354;20.886;2022-10-16T05:10:49;30.13;;;16.15;;
18206;SDS011;9229;52.354;20.886;2022-10-16T05:15:52;26.38;;;16.63;;
18206;SDS011;9229;52.354;20.886;2022-10-16T05:20:54;29.73;;;17.10;;
18206;SDS011;9229;52.354;20.886;2022-10-16T05:25:58;28.45;;;17.17;;
18206;SDS011;9229;52.354;20.886;2022-10-16T05:31:05;29.02;;;15.70;;
18206;SDS011;9229;52.354;20.886;2022-10-16T05:36:07;30.10;;;15.50;;
18206;SDS011;9229;52.354;20.886;2022-10-16T05:41:10;26.55;;;16.23;;
18206;SDS011;9229;52.354;20.886;2022-10-16T05:46:14;26.10;;;15.93;;
18206;SDS011;9229;52.354;20.886;2022-10-16T05:51:16;25.95;;;15.50;;
18206;SDS011;9229;52.354;20.886;2022-10-16T05:56:18;23.77;;;15.88;;
18206;SDS011;9229;52.354;20.886;2022-10-16T06:01:21;31.60;;;16.55;;
18206;SDS011;9229;52.354;20.886;2022-10-16T06:06:24;30.98;;;16.65;;
18206;SDS011;9229;52.354;20.886;2022-10-16T06:11:29;29.80;;;17.05;;
18206;SDS011;9229;52.354;20.886;2022-10-16T06:16:34;29.48;;;15.95;;
18206;SDS011;9229;52.354;20.886;2022-10-16T06:21:36;24.60;;;15.05;;
18206;SDS011;9229;52.354;20.886;2022-10-16T06:26:38;27.92;;;16.45;;
18206;SDS011;9229;52.354;20.886;2022-10-16T06:31:41;29.50;;;16.20;;
18206;SDS011;9229;52.354;20.886;2022-10-16T06:36:43;27.40;;;15.50;;
18206;SDS011;9229;52.354;20.886;2022-10-16T06:41:44;27.00;;;15.23;;
18206;SDS011;9229;52.354;20.886;2022-10-16T06:46:50;21.83;;;13.93;;
18206;SDS011;9229;52.354;20.886;2022-10-16T06:51:52;20.88;;;13.98;;
18206;SDS011;9229;52.354;20.886;2022-10-16T06:56:54;23.58;;;14.18;;
18206;SDS011;9229;52.354;20.886;2022-10-16T07:01:57;19.02;;;12.88;;
18206;SDS011;9229;52.354;20.886;2022-10-16T07:06:59;17.98;;;12.88;;
18206;SDS011;9229;52.354;20.886;2022-10-16T07:12:01;17.70;;;12.20;;
18206;SDS011;9229;52.354;20.886;2022-10-16T07:17:05;17.55;;;12.43;;
18206;SDS011;9229;52.354;20.886;2022-10-16T07:22:07;20.80;;;12.85;;
18206;SDS011;9229;52.354;20.886;2022-10-16T07:27:08;26.80;;;12.75;;
18206;SDS011;9229;52.354;20.886;2022-10-16T07:32:12;18.35;;;12.73;;
18206;SDS011;9229;52.354;20.886;2022-10-16T07:37:13;19.70;;;12.57;;
18206;SDS011;9229;52.354;20.886;2022-10-16T07:42:15;16.15;;;11.98;;
18206;SDS011;9229;52.354;20.886;2022-10-16T07:47:18;20.15;;;12.43;;
18206;SDS011;9229;52.354;20.886;2022-10-16T07:52:20;19.40;;;12.30;;
18206;SDS011;9229;52.354;20.886;2022-10-16T07:57:22;18.25;;;11.30;;
18206;SDS011;9229;52.354;20.886;2022-10-16T08:02:26;20.27;;;11.85;;
18206;SDS011;9229;52.354;20.886;2022-10-16T08:07:27;23.65;;;12.68;;
18206;SDS011;9229;52.354;20.886;2022-10-16T08:12:29;24.85;;;13.82;;
18206;SDS011;9229;52.354;20.886;2022-10-16T08:17:32;18.27;;;12.32;;
18206;SDS011;9229;52.354;20.886;2022-10-16T08:22:34;17.38;;;12.65;;
18206;SDS011;9229;52.354;20.886;2022-10-16T08:27:39;19.35;;;12.23;;
18206;SDS011;9229;52.354;20.886;2022-10-16T08:32:44;17.85;;;13.10;;
18206;SDS011;9229;52.354;20.886;2022-10-16T08:37:46;17.88;;;11.23;;
18206;SDS011;9229;52.354;20.886;2022-10-16T08:42:55;15.75;;;11.25;;
18206;SDS011;9229;52.354;20.886;2022-10-16T08:48:20;17.98;;;10.65;;
18206;SDS011;9229;52.354;20.886;2022-10-16T08:53:28;18.30;;;12.35;;
18206;SDS011;9229;52.354;20.886;2022-10-16T08:58:34;15.35;;;11.20;;
18206;SDS011;9229;52.354;20.886;2022-10-16T09:03:41;18.60;;;11.23;;
18206;SDS011;9229;52.354;20.886;2022-10-16T09:14:46;18.00;;;10.43;;
18206;SDS011;9229;52.354;20.886;2022-10-16T09:20:12;12.25;;;9.70;;
18206;SDS011;9229;52.354;20.886;2022-10-16T09:25:20;15.43;;;9.95;;
18206;SDS011;9229;52.354;20.886;2022-10-16T09:30:22;11.15;;;9.60;;
18206;SDS011;9229;52.354;20.886;2022-10-16T09:35:33;14.18;;;10.15;;
18206;SDS011;9229;52.354;20.886;2022-10-16T09:40:38;14.82;;;9.23;;
18206;SDS011;9229;52.354;20.886;2022-10-16T09:45:43;12.60;;;9.13;;
18206;SDS011;9229;52.354;20.886;2022-10-16T09:50:57;14.32;;;9.82;;
18206;SDS011;9229;52.354;20.886;2022-10-16T09:56:00;15.65;;;9.68;;
18206;SDS011;9229;52.354;20.886;2022-10-16T10:01:04;14.02;;;9.02;;
18206;SDS011;9229;52.354;20.886;2022-10-16T10:06:14;11.63;;;9.27;;
18206;SDS011;9229;52.354;20.886;2022-10-16T10:11:43;16.17;;;9.48;;
18206;SDS011;9229;52.354;20.886;2022-10-16T10:17:02;10.38;;;9.02;;
18206;SDS011;9229;52.354;20.886;2022-10-16T10:22:24;15.23;;;9.07;;
18206;SDS011;9229;52.354;20.886;2022-10-16T10:27:31;16.35;;;9.45;;
18206;SDS011;9229;52.354;20.886;2022-10-16T10:32:41;16.00;;;9.23;;
18206;SDS011;9229;52.354;20.886;2022-10-16T10:37:57;15.20;;;9.23;;
18206;SDS011;9229;52.354;20.886;2022-10-16T10:43:10;12.07;;;9.70;;
18206;SDS011;9229;52.354;20.886;2022-10-16T10:48:27;14.50;;;9.35;;
18206;SDS011;9229;52.354;20.886;2022-10-16T10:53:50;13.02;;;9.30;;
18206;SDS011;9229;52.354;20.886;2022-10-16T10:59:09;15.00;;;9.77;;
18206;SDS011;9229;52.354;20.886;2022-10-16T11:04:32;16.23;;;10.27;;
18206;SDS011;9229;52.354;20.886;2022-10-16T11:09:45;14.27;;;10.48;;
18206;SDS011;9229;52.354;20.886;2022-10-16T11:14:53;15.68;;;9.55;;
18206;SDS011;9229;52.354;20.886;2022-10-16T11:20:00;13.38;;;8.95;;
18206;SDS011;9229;52.354;20.886;2022-10-16T11:25:13;12.35;;;9.05;;
18206;SDS011;9229;52.354;20.886;2022-10-16T11:30:18;15.90;;;9.48;;
18206;SDS011;9229;52.354;20.886;2022-10-16T11:35:23;14.50;;;9.80;;
18206;SDS011;9229;52.354;20.886;2022-10-16T11:40:36;15.95;;;9.52;;
18206;SDS011;9229;52.354;20.886;2022-10-16T11:45:42;16.58;;;9.10;;
18206;SDS011;9229;52.354;20.886;2022-10-16T11:50:48;12.50;;;9.40;;
18206;SDS011;9229;52.354;20.886;2022-10-16T11:55:55;11.82;;;8.63;;
18206;SDS011;9229;52.354;20.886;2022-10-16T12:00:58;17.42;;;9.05;;
18206;SDS011;9229;52.354;20.886;2022-10-16T12:06:13;12.00;;;9.10;;
18206;SDS011;9229;52.354;20.886;2022-10-16T12:11:31;18.02;;;9.32;;
18206;SDS011;9229;52.354;20.886;2022-10-16T12:16:36;11.10;;;8.55;;
18206;SDS011;9229;52.354;20.886;2022-10-16T12:21:39;15.10;;;9.07;;
18206;SDS011;9229;52.354;20.886;2022-10-16T12:26:42;28.63;;;9.43;;
18206;SDS011;9229;52.354;20.886;2022-10-16T12:31:47;15.60;;;8.90;;
18206;SDS011;9229;52.354;20.886;2022-10-16T12:36:50;13.55;;;9.38;;
18206;SDS011;9229;52.354;20.886;2022-10-16T12:42:03;10.90;;;8.77;;
18206;SDS011;9229;52.354;20.886;2022-10-16T12:47:18;14.60;;;8.75;;
18206;SDS011;9229;52.354;20.886;2022-10-16T12:52:28;12.32;;;8.40;;
18206;SDS011;9229;52.354;20.886;2022-10-16T12:57:41;12.07;;;8.13;;
18206;SDS011;9229;52.354;20.886;2022-10-16T13:03:02;12.27;;;8.30;;
18206;SDS011;9229;52.354;20.886;2022-10-16T13:08:29;16.73;;;9.02;;
18206;SDS011;9229;52.354;20.886;2022-10-16T13:19:24;12.60;;;8.48;;
18206;SDS011;9229;52.354;20.886;2022-10-16T13:24:43;19.98;;;9.25;;
18206;SDS011;9229;52.354;20.886;2022-10-16T13:29:59;12.05;;;9.15;;
18206;SDS011;9229;52.354;20.886;2022-10-16T13:35:03;14.23;;;10.07;;
18206;SDS011;9229;52.354;20.886;2022-10-16T13:40:21;13.10;;;9.82;;
18206;SDS011;9229;52.354;20.886;2022-10-16T13:45:26;14.65;;;10.10;;
18206;SDS011;9229;52.354;20.886;2022-10-16T13:50:28;14.30;;;9.70;;
18206;SDS011;9229;52.354;20.886;2022-10-16T13:55:30;13.07;;;9.85;;
18206;SDS011;9229;52.354;20.886;2022-10-16T14:00:34;14.80;;;9.48;;
18206;SDS011;9229;52.354;20.886;2022-10-16T14:05:36;14.48;;;10.13;;
18206;SDS011;9229;52.354;20.886;2022-10-16T14:10:46;15.68;;;9.60;;
18206;SDS011;9229;52.354;20.886;2022-10-16T14:15:51;10.50;;;9.13;;
18206;SDS011;9229;52.354;20.886;2022-10-16T14:20:55;15.98;;;10.40;;
18206;SDS011;9229;52.354;20.886;2022-10-16T14:26:12;14.48;;;9.52;;
18206;SDS011;9229;52.354;20.886;2022-10-16T14:31:26;11.65;;;9.15;;
18206;SDS011;9229;52.354;20.886;2022-10-16T14:36:30;10.60;;;9.38;;
18206;SDS011;9229;52.354;20.886;2022-10-16T14:41:32;14.48;;;10.05;;
18206;SDS011;9229;52.354;20.886;2022-10-16T14:46:46;17.85;;;9.00;;
18206;SDS011;9229;52.354;20.886;2022-10-16T14:51:48;16.02;;;9.30;;
18206;SDS011;9229;52.354;20.886;2022-10-16T14:56:50;15.18;;;9.95;;
18206;SDS011;9229;52.354;20.886;2022-10-16T15:01:55;13.63;;;9.70;;
18206;SDS011;9229;52.354;20.886;2022-10-16T15:06:58;13.07;;;9.50;;
18206;SDS011;9229;52.354;20.886;2022-10-16T15:11:59;12.75;;;9.82;;
18206;SDS011;9229;52.354;20.886;2022-10-16T15:17:03;11.77;;;9.82;;
18206;SDS011;9229;52.354;20.886;2022-10-16T15:22:05;12.73;;;9.00;;
18206;SDS011;9229;52.354;20.886;2022-10-16T15:27:07;15.93;;;10.73;;
18206;SDS011;9229;52.354;20.886;2022-10-16T15:32:10;13.32;;;9.63;;
18206;SDS011;9229;52.354;20.886;2022-10-16T15:37:12;13.30;;;10.27;;
18206;SDS011;9229;52.354;20.886;2022-10-16T15:42:15;19.27;;;10.88;;
18206;SDS011;9229;52.354;20.886;2022-10-16T15:47:18;16.52;;;11.15;;
18206;SDS011;9229;52.354;20.886;2022-10-16T15:52:20;14.20;;;10.35;;
18206;SDS011;9229;52.354;20.886;2022-10-16T15:57:22;15.77;;;11.15;;
18206;SDS011;9229;52.354;20.886;2022-10-16T16:02:25;17.92;;;10.82;;
18206;SDS011;9229;52.354;20.886;2022-10-16T16:07:27;15.25;;;11.32;;
18206;SDS011;9229;52.354;20.886;2022-10-16T16:12:28;22.33;;;12.90;;
18206;SDS011;9229;52.354;20.886;2022-10-16T16:17:32;21.63;;;12.63;;
18206;SDS011;9229;52.354;20.886;2022-10-16T16:22:34;21.60;;;12.55;;
18206;SDS011;9229;52.354;20.886;2022-10-16T16:27:36;21.27;;;12.55;;
18206;SDS011;9229;52.354;20.886;2022-10-16T16:32:40;19.85;;;13.68;;
18206;SDS011;9229;52.354;20.886;2022-10-16T16:37:42;18.67;;;12.35;;
18206;SDS011;9229;52.354;20.886;2022-10-16T16:42:46;22.60;;;13.27;;
18206;SDS011;9229;52.354;20.886;2022-10-16T16:47:50;27.08;;;14.23;;
18206;SDS011;9229;52.354;20.886;2022-10-16T16:52:52;24.17;;;14.35;;
18206;SDS011;9229;52.354;20.886;2022-10-16T16:57:54;22.02;;;14.38;;
18206;SDS011;9229;52.354;20.886;2022-10-16T17:02:58;25.10;;;16.50;;
18206;SDS011;9229;52.354;20.886;2022-10-16T17:07:59;24.88;;;15.13;;
18206;SDS011;9229;52.354;20.886;2022-10-16T17:13:01;27.00;;;17.05;;
18206;SDS011;9229;52.354;20.886;2022-10-16T17:18:04;31.27;;;18.38;;
18206;SDS011;9229;52.354;20.886;2022-10-16T17:23:06;27.83;;;17.40;;
18206;SDS011;9229;52.354;20.886;2022-10-16T17:28:09;24.58;;;15.52;;
18206;SDS011;9229;52.354;20.886;2022-10-16T17:33:13;27.85;;;16.98;;
18206;SDS011;9229;52.354;20.886;2022-10-16T17:38:15;30.75;;;18.40;;
18206;SDS011;9229;52.354;20.886;2022-10-16T17:43:17;37.92;;;21.05;;
18206;SDS011;9229;52.354;20.886;2022-10-16T17:48:20;34.25;;;20.95;;
18206;SDS011;9229;52.354;20.886;2022-10-16T17:53:23;45.15;;;23.10;;
18206;SDS011;9229;52.354;20.886;2022-10-16T17:58:25;45.47;;;23.92;;
18206;SDS011;9229;52.354;20.886;2022-10-16T18:03:28;83.75;;;34.72;;
18206;SDS011;9229;52.354;20.886;2022-10-16T18:08:30;86.78;;;32.72;;
18206;SDS011;9229;52.354;20.886;2022-10-16T18:13:35;38.42;;;20.52;;
18206;SDS011;9229;52.354;20.886;2022-10-16T18:18:39;39.08;;;20.48;;
18206;SDS011;9229;52.354;20.886;2022-10-16T18:23:43;29.23;;;17.25;;
18206;SDS011;9229;52.354;20.886;2022-10-16T18:28:47;33.03;;;19.25;;
18206;SDS011;9229;52.354;20.886;2022-10-16T18:33:51;33.55;;;19.38;;
18206;SDS011;9229;52.354;20.886;2022-10-16T18:38:53;30.52;;;17.58;;
18206;SDS011;9229;52.354;20.886;2022-10-16T18:43:55;30.63;;;19.55;;
18206;SDS011;9229;52.354;20.886;2022-10-16T18:48:59;38.95;;;19.95;;
18206;SDS011;9229;52.354;20.886;2022-10-16T18:54:02;32.40;;;19.83;;
18206;SDS011;9229;52.354;20.886;2022-10-16T18:59:07;32.42;;;19.42;;
18206;SDS011;9229;52.354;20.886;2022-10-16T19:04:12;33.72;;;19.75;;
18206;SDS011;9229;52.354;20.886;2022-10-16T19:09:16;33.05;;;18.63;;
18206;SDS011;9229;52.354;20.886;2022-10-16T19:14:19;32.83;;;18.00;;
18206;SDS011;9229;52.354;20.886;2022-10-16T19:19:24;27.77;;;18.15;;
18206;SDS011;9229;52.354;20.886;2022-10-16T19:24:26;34.67;;;20.42;;
18206;SDS011;9229;52.354;20.886;2022-10-16T19:29:28;37.50;;;19.35;;
18206;SDS011;9229;52.354;20.886;2022-10-16T19:34:31;32.10;;;18.33;;
18206;SDS011;9229;52.354;20.886;2022-10-16T19:39:33;32.90;;;19.48;;
18206;SDS011;9229;52.354;20.886;2022-10-16T19:44:35;32.67;;;19.58;;
18206;SDS011;9229;52.354;20.886;2022-10-16T19:49:38;33.95;;;20.73;;
18206;SDS011;9229;52.354;20.886;2022-10-16T19:54:40;35.58;;;20.20;;
18206;SDS011;9229;52.354;20.886;2022-10-16T19:59:42;38.53;;;20.00;;
18206;SDS011;9229;52.354;20.886;2022-10-16T20:04:45;34.35;;;19.30;;
18206;SDS011;9229;52.354;20.886;2022-10-16T20:09:47;30.45;;;19.13;;
18206;SDS011;9229;52.354;20.886;2022-10-16T20:14:49;31.75;;;19.00;;
18206;SDS011;9229;52.354;20.886;2022-10-16T20:19:52;33.35;;;19.08;;
18206;SDS011;9229;52.354;20.886;2022-10-16T20:24:54;29.40;;;17.08;;
18206;SDS011;9229;52.354;20.886;2022-10-16T20:29:56;31.75;;;17.73;;
18206;SDS011;9229;52.354;20.886;2022-10-16T20:34:59;32.47;;;18.50;;
18206;SDS011;9229;52.354;20.886;2022-10-16T20:40:02;27.50;;;17.67;;
18206;SDS011;9229;52.354;20.886;2022-10-16T20:45:04;27.73;;;17.80;;
18206;SDS011;9229;52.354;20.886;2022-10-16T20:50:08;32.17;;;18.08;;
18206;SDS011;9229;52.354;20.886;2022-10-16T20:55:11;28.60;;;16.67;;
18206;SDS011;9229;52.354;20.886;2022-10-16T21:00:15;35.10;;;16.95;;
18206;SDS011;9229;52.354;20.886;2022-10-16T21:05:18;31.80;;;18.30;;
18206;SDS011;9229;52.354;20.886;2022-10-16T21:10:20;35.47;;;18.52;;
18206;SDS011;9229;52.354;20.886;2022-10-16T21:15:22;28.48;;;17.45;;
18206;SDS011;9229;52.354;20.886;2022-10-16T21:20:26;33.88;;;18.13;;
18206;SDS011;9229;52.354;20.886;2022-10-16T21:25:27;36.10;;;18.42;;
18206;SDS011;9229;52.354;20.886;2022-10-16T21:30:29;32.67;;;18.63;;
18206;SDS011;9229;52.354;20.886;2022-10-16T21:35:32;32.85;;;18.48;;
18206;SDS011;9229;52.354;20.886;2022-10-16T21:40:34;33.55;;;18.35;;
18206;SDS011;9229;52.354;20.886;2022-10-16T21:45:36;31.13;;;18.77;;
18206;SDS011;9229;52.354;20.886;2022-10-16T21:50:39;36.60;;;19.67;;
18206;SDS011;9229;52.354;20.886;2022-10-16T21:55:48;33.25;;;19.02;;
18206;SDS011;9229;52.354;20.886;2022-10-16T22:00:50;36.70;;;20.05;;
18206;SDS011;9229;52.354;20.886;2022-10-16T22:05:53;27.77;;;18.20;;
18206;SDS011;9229;52.354;20.886;2022-10-16T22:11:01;32.13;;;19.17;;
18206;SDS011;9229;52.354;20.886;2022-10-16T22:16:03;32.25;;;18.73;;
18206;SDS011;9229;52.354;20.886;2022-10-16T22:21:10;31.20;;;19.13;;
18206;SDS011;9229;52.354;20.886;2022-10-16T22:26:12;31.85;;;19.30;;
18206;SDS011;9229;52.354;20.886;2022-10-16T22:31:14;32.30;;;18.42;;
18206;SDS011;9229;52.354;20.886;2022-10-16T22:36:17;30.75;;;18.83;;
18206;SDS011;9229;52.354;20.886;2022-10-16T22:41:19;40.97;;;20.63;;
18206;SDS011;9229;52.354;20.886;2022-10-16T22:46:22;31.38;;;19.00;;
18206;SDS011;9229;52.354;20.886;2022-10-16T22:51:28;32.78;;;19.40;;
18206;SDS011;9229;52.354;20.886;2022-10-16T22:56:30;31.63;;;18.70;;
18206;SDS011;9229;52.354;20.886;2022-10-16T23:01:36;34.63;;;19.45;;
18206;SDS011;9229;52.354;20.886;2022-10-16T23:06:41;33.05;;;19.08;;
18206;SDS011;9229;52.354;20.886;2022-10-16T23:11:43;32.88;;;18.13;;
18206;SDS011;9229;52.354;20.886;2022-10-16T23:16:44;29.25;;;18.48;;
18206;SDS011;9229;52.354;20.886;2022-10-16T23:21:48;34.50;;;18.75;;
18206;SDS011;9229;52.354;20.886;2022-10-16T23:26:49;32.97;;;18.40;;
18206;SDS011;9229;52.354;20.886;2022-10-16T23:31:52;36.03;;;18.50;;
18206;SDS011;9229;52.354;20.886;2022-10-16T23:36:55;32.80;;;18.33;;
18206;SDS011;9229;52.354;20.886;2022-10-16T23:41:57;27.17;;;16.23;;
18206;SDS011;9229;52.354;20.886;2022-10-16T23:46:59;23.80;;;16.00;;
18206;SDS011;9229;52.354;20.886;2022-10-16T23:52:02;23.38;;;14.65;;
18206;SDS011;9229;52.354;20.886;2022-10-16T23:57:04;23.25;;;15.10;;
